createdAt,value
2023-01-07T00:04:26.853Z,8.20
2023-01-07T00:09:28.778Z,9.40
2023-01-07T00:14:33.260Z,8.50
2023-01-07T00:19:35.126Z,10.50
2023-01-07T00:24:36.968Z,8.90
2023-01-07T00:29:38.659Z,10.30
2023-01-07T00:34:40.494Z,9.90
2023-01-07T00:39:42.293Z,11.60
2023-01-07T00:44:44.011Z,11.20
2023-01-07T00:49:46.969Z,11.20
2023-01-07T00:54:48.781Z,12.20
2023-01-07T00:59:50.627Z,14.40
2023-01-07T01:04:52.402Z,12.40
2023-01-07T01:09:54.186Z,10.70
2023-01-07T01:14:56.709Z,10.90
2023-01-07T01:19:58.410Z,10.10
2023-01-07T01:25:00.161Z,10.10
2023-01-07T01:30:02.456Z,12.10
2023-01-07T01:35:05.211Z,13.30
2023-01-07T01:40:08.027Z,8.50
2023-01-07T01:45:11.684Z,11.10
2023-01-07T01:50:26.786Z,8.60
2023-01-07T01:55:35.676Z,10.80
2023-01-07T02:00:38.738Z,10.50
2023-01-07T02:05:42.606Z,12.20
2023-01-07T02:10:44.441Z,12.30
2023-01-07T02:16:11.224Z,13.00
2023-01-07T02:21:34.535Z,13.80
2023-01-07T02:27:04.017Z,14.20
2023-01-07T02:33:14.207Z,12.10
2023-01-07T02:38:44.960Z,12.60
2023-01-07T02:44:03.054Z,12.90
2023-01-07T02:49:09.449Z,13.60
2023-01-07T02:54:24.956Z,14.90
2023-01-07T03:00:03.233Z,14.50
2023-01-07T03:05:33.824Z,15.80
2023-01-07T03:10:45.131Z,13.30
2023-01-07T03:16:00.189Z,15.20
2023-01-07T03:21:06.658Z,16.70
2023-01-07T03:26:10.098Z,17.20
2023-01-07T03:31:15.803Z,19.10
2023-01-07T03:36:23.502Z,19.90
2023-01-07T03:41:45.598Z,22.80
2023-01-07T03:46:48.145Z,24.80
2023-01-07T03:51:50.289Z,21.80
2023-01-07T03:56:52.309Z,18.60
2023-01-07T04:01:54.236Z,20.60
2023-01-07T04:06:56.373Z,21.20
2023-01-07T04:11:58.495Z,21.60
2023-01-07T04:17:00.396Z,24.10
2023-01-07T04:22:02.345Z,24.90
2023-01-07T04:27:05.647Z,27.30
2023-01-07T04:32:07.419Z,23.20
2023-01-07T04:37:09.679Z,61.10
2023-01-07T04:42:11.490Z,36.00
2023-01-07T04:47:13.424Z,33.00
2023-01-07T04:52:15.432Z,32.50
2023-01-07T04:57:18.553Z,35.80
2023-01-07T05:02:20.701Z,42.10
2023-01-07T05:07:22.941Z,46.50
2023-01-07T05:12:24.824Z,43.90
2023-01-07T05:17:28.596Z,46.30
2023-01-07T05:22:32.640Z,49.30
2023-01-07T05:27:34.475Z,48.30
2023-01-07T05:32:37.783Z,50.20
2023-01-07T05:37:39.963Z,51.20
2023-01-07T05:42:43.658Z,52.30
2023-01-07T05:47:45.857Z,48.40
2023-01-07T05:52:47.732Z,47.80
2023-01-07T05:57:49.467Z,46.10
2023-01-07T06:02:51.118Z,46.80
2023-01-07T06:07:52.896Z,60.30
2023-01-07T06:12:54.631Z,58.70
2023-01-07T06:17:56.372Z,63.80
2023-01-07T06:22:58.102Z,57.50
2023-01-07T06:27:59.771Z,54.90
2023-01-07T06:33:01.575Z,51.70
2023-01-07T06:38:03.418Z,54.50
2023-01-07T06:43:05.114Z,51.90
2023-01-07T06:48:06.863Z,57.40
2023-01-07T06:53:08.507Z,63.60
2023-01-07T06:58:10.253Z,67.10
2023-01-07T07:03:12.067Z,74.70
2023-01-07T07:08:13.961Z,90.30
2023-01-07T07:13:15.719Z,103.70
2023-01-07T07:18:18.224Z,129.30
2023-01-07T07:23:19.913Z,134.60
2023-01-07T07:28:21.643Z,136.40
2023-01-07T07:33:23.355Z,137.00
2023-01-07T07:38:25.137Z,129.60
2023-01-07T07:43:26.992Z,121.40
2023-01-07T07:48:28.897Z,125.20
2023-01-07T07:53:30.692Z,119.90
2023-01-07T07:58:32.421Z,130.10
2023-01-07T08:03:34.303Z,161.60
2023-01-07T08:08:36.234Z,143.00
2023-01-07T08:13:38.013Z,112.20
2023-01-07T08:18:40.114Z,72.50
2023-01-07T08:23:42.034Z,59.30
2023-01-07T08:28:46.421Z,66.50
2023-01-07T08:33:48.455Z,84.50
2023-01-07T08:38:55.188Z,58.10
2023-01-07T08:43:56.972Z,55.10
2023-01-07T08:48:58.683Z,57.10
2023-01-07T08:54:00.402Z,49.70
2023-01-07T08:59:02.181Z,55.40
2023-01-07T09:04:04.124Z,55.90
2023-01-07T09:09:06.388Z,62.60
2023-01-07T09:14:08.112Z,68.70
2023-01-07T09:19:09.810Z,56.80
2023-01-07T09:24:11.576Z,61.90
2023-01-07T09:29:13.302Z,53.00
2023-01-07T09:34:15.130Z,46.60
2023-01-07T09:39:16.930Z,47.40
2023-01-07T09:44:46.114Z,48.80
2023-01-07T09:49:53.966Z,46.20
2023-01-07T09:55:10.581Z,46.40
2023-01-07T10:00:18.703Z,47.80
2023-01-07T10:05:34.302Z,34.80
2023-01-07T10:10:50.217Z,41.30
2023-01-07T10:15:58.369Z,38.20
2023-01-07T10:21:06.191Z,34.20
2023-01-07T10:26:19.352Z,31.90
2023-01-07T10:31:24.044Z,24.10
2023-01-07T10:36:28.988Z,26.30
2023-01-07T10:41:45.173Z,32.60
2023-01-07T10:47:00.041Z,23.60
2023-01-07T10:52:28.612Z,23.10
2023-01-07T10:57:31.909Z,16.30
2023-01-07T11:02:33.684Z,17.20
2023-01-07T11:07:48.336Z,17.60
2023-01-07T11:12:58.297Z,15.40
2023-01-07T11:23:38.330Z,12.80
2023-01-07T11:28:47.294Z,13.80
2023-01-07T11:34:02.304Z,11.40
2023-01-07T11:39:23.824Z,11.10
2023-01-07T11:44:26.125Z,9.50
2023-01-07T11:49:30.464Z,7.80
2023-01-07T11:54:32.723Z,8.20
2023-01-07T11:59:34.448Z,13.30
2023-01-07T12:04:37.163Z,11.30
2023-01-07T12:09:41.205Z,12.30
2023-01-07T12:14:47.680Z,13.40
2023-01-07T12:20:08.031Z,14.00
2023-01-07T12:25:24.875Z,12.10
2023-01-07T12:30:35.615Z,9.60
2023-01-07T12:35:42.922Z,9.60
2023-01-07T12:40:51.448Z,10.80
2023-01-07T12:46:00.593Z,8.60
2023-01-07T12:51:10.951Z,11.80
2023-01-07T12:56:22.964Z,8.80
2023-01-07T13:01:30.321Z,10.60
2023-01-07T13:06:45.043Z,13.50
2023-01-07T13:12:41.060Z,10.70
2023-01-07T13:22:46.997Z,9.40
2023-01-07T13:33:04.048Z,14.60
2023-01-07T13:38:33.865Z,16.00
2023-01-07T13:43:55.726Z,15.40
2023-01-07T13:48:57.633Z,17.30
2023-01-07T13:53:59.484Z,16.80
2023-01-07T13:59:01.915Z,18.70
2023-01-07T14:04:03.550Z,18.70
2023-01-07T14:09:05.315Z,18.40
2023-01-07T14:14:29.929Z,20.50
2023-01-07T14:19:47.006Z,21.80
2023-01-07T14:25:07.420Z,23.80
2023-01-07T14:30:28.410Z,25.10
2023-01-07T14:35:34.826Z,24.00
2023-01-07T14:40:37.400Z,24.90
2023-01-07T14:45:39.071Z,24.90
2023-01-07T14:50:46.075Z,23.30
2023-01-07T14:56:17.653Z,23.70
2023-01-07T15:01:37.023Z,28.80
2023-01-07T15:06:41.110Z,28.70
2023-01-07T15:12:04.270Z,27.10
2023-01-07T15:17:07.156Z,26.10
2023-01-07T15:22:28.787Z,41.50
2023-01-07T15:27:37.978Z,23.70
2023-01-07T15:32:57.784Z,26.70
2023-01-07T15:38:02.795Z,44.40
2023-01-07T15:43:05.797Z,60.80
2023-01-07T15:48:12.428Z,62.30
2023-01-07T15:53:14.099Z,54.00
2023-01-07T15:58:20.152Z,43.70
2023-01-07T16:03:22.404Z,40.10
2023-01-07T16:08:29.870Z,38.20
2023-01-07T16:13:32.812Z,37.50
2023-01-07T16:18:34.666Z,41.80
2023-01-07T16:23:37.836Z,40.60
2023-01-07T16:28:49.060Z,42.50
2023-01-07T16:33:54.263Z,48.80
2023-01-07T16:39:00.965Z,53.10
2023-01-07T16:44:03.416Z,59.40
2023-01-07T16:49:11.432Z,58.50
2023-01-07T16:54:25.788Z,56.00
2023-01-07T16:59:31.033Z,60.00
2023-01-07T17:04:33.534Z,56.00
2023-01-07T17:09:38.432Z,61.30
2023-01-07T17:14:45.662Z,70.20
2023-01-07T17:20:23.190Z,63.70
2023-01-07T17:25:28.351Z,57.90
2023-01-07T17:30:37.138Z,62.70
2023-01-07T17:35:44.413Z,60.30
2023-01-07T17:40:47.068Z,60.70
2023-01-07T17:45:48.814Z,58.80
2023-01-07T17:50:50.710Z,58.60
2023-01-07T17:55:52.655Z,63.20
2023-01-07T18:00:56.425Z,65.30
2023-01-07T18:05:58.470Z,65.40
2023-01-07T18:11:18.935Z,69.70
2023-01-07T18:16:20.699Z,74.20
2023-01-07T18:21:24.234Z,74.20
2023-01-07T18:26:27.213Z,69.80
2023-01-07T18:31:29.128Z,65.80
2023-01-07T18:36:30.871Z,58.20
2023-01-07T18:41:33.927Z,50.20
2023-01-07T18:46:35.575Z,50.10
2023-01-07T18:51:37.383Z,38.40
2023-01-07T18:56:39.185Z,54.30
2023-01-07T19:01:40.960Z,79.90
2023-01-07T19:06:42.914Z,89.30
2023-01-07T19:11:44.663Z,71.80
2023-01-07T19:16:46.459Z,85.60
2023-01-07T19:21:49.507Z,67.30
2023-01-07T19:26:52.020Z,66.40
2023-01-07T19:31:53.916Z,56.30
2023-01-07T19:36:55.631Z,72.00
2023-01-07T19:41:57.339Z,70.80
2023-01-07T19:46:59.111Z,60.60
2023-01-07T19:52:00.896Z,59.40
2023-01-07T19:57:02.606Z,56.80
2023-01-07T20:02:04.862Z,58.90
2023-01-07T20:07:06.661Z,65.00
2023-01-07T20:12:08.718Z,56.80
2023-01-07T20:17:11.299Z,62.50
2023-01-07T20:22:13.279Z,63.40
2023-01-07T20:27:15.023Z,74.30
2023-01-07T20:32:18.392Z,67.10
2023-01-07T20:37:21.849Z,65.10
2023-01-07T20:42:23.660Z,61.50
2023-01-07T20:47:25.690Z,76.10
2023-01-07T20:52:27.374Z,75.60
2023-01-07T20:57:30.776Z,80.40
2023-01-07T21:02:32.600Z,73.90
2023-01-07T21:07:34.720Z,82.10
2023-01-07T21:12:36.491Z,78.50
2023-01-07T21:17:39.392Z,81.40
2023-01-07T21:22:41.810Z,87.20
2023-01-07T21:27:43.580Z,83.50
2023-01-07T21:32:45.604Z,89.10
2023-01-07T21:37:49.889Z,87.00
2023-01-07T21:42:51.845Z,90.20
2023-01-07T21:47:53.623Z,85.60
2023-01-07T21:52:55.500Z,75.20
2023-01-07T21:57:57.210Z,96.80
2023-01-07T22:02:58.867Z,93.20
2023-01-07T22:08:00.570Z,100.80
2023-01-07T22:13:07.309Z,95.80
2023-01-07T22:18:09.170Z,98.50
2023-01-07T22:23:17.012Z,93.40
2023-01-07T22:28:21.685Z,96.80
2023-01-07T22:33:23.530Z,91.20
2023-01-07T22:38:27.168Z,104.00
2023-01-07T22:43:30.118Z,91.80
2023-01-07T22:48:36.519Z,97.30
2023-01-07T22:53:38.474Z,76.80
2023-01-07T22:58:40.264Z,87.50
2023-01-07T23:03:43.620Z,76.40
2023-01-07T23:08:45.501Z,94.10
2023-01-07T23:13:47.189Z,82.30
2023-01-07T23:18:48.902Z,63.90
2023-01-07T23:23:50.531Z,82.50
2023-01-07T23:28:52.321Z,77.00
2023-01-07T23:33:54.042Z,83.30
2023-01-07T23:38:56.007Z,89.20
2023-01-07T23:43:57.764Z,92.60
2023-01-07T23:48:59.549Z,98.80
2023-01-07T23:54:01.332Z,88.00
2023-01-07T23:59:03.348Z,86.00
